Terminal Aerodrome Forecast
Issued by NWS

Home | Current Version | Previous Version | Text Only | Print | Product List | Glossary On
Versions: 1 2 3 4 5 6 7 8 9 10 11 12
000
FTUS41 KLWX 122300
TAFMTN
TAF
KMTN 122320Z 1300/1324 13009KT P6SM FEW030
     FM130100 18012KT P6SM SCT060
     FM130700 18010KT P6SM BKN060
      AMD NOT SKED 1302/1312=

USA.gov is the U.S. government's official web portal to all federal, state and local government web resources and services.